Time;durP1;ratioP1;P1;durP2;ratioP2;P2;SDS_P1;SDS_P2;PMS_P1;PMS_P2;Temp;Humidity;BMP_temperature;BMP_pressure;BME280_temperature;BME280_humidity;BME280_pressure;Samples;Min_cycle;Max_cycle;Signal;HPM_P1;HPM_P2
2024/01/24 00:02:50;;;;;;;2.50;1.20;;;9.20;99.90;;;;;;6161536;23;20429;-77
2024/01/24 00:05:42;;;;;;;3.90;1.60;;;9.20;99.90;;;;;;6160928;23;20405;-77
2024/01/24 00:14:40;;;;;;;2.87;1.50;;;9.40;99.90;;;;;;6125544;23;20419;-78
2024/01/24 00:17:42;;;;;;;5.67;1.80;;;9.40;99.90;;;;;;6158307;23;20446;-78
2024/01/24 00:20:50;;;;;;;3.90;1.73;;;9.30;99.90;;;;;;6159067;23;20988;-78
2024/01/24 00:23:38;;;;;;;5.20;1.90;;;9.50;99.90;;;;;;6159067;23;20962;-77
2024/01/24 00:26:23;;;;;;;3.77;1.87;;;9.50;99.90;;;;;;6159703;23;20408;-77
2024/01/24 00:28:55;;;;;;;4.13;2.07;;;9.50;99.90;;;;;;6160267;23;20930;-76
2024/01/24 00:31:32;;;;;;;3.93;1.40;;;9.50;99.90;;;;;;6159808;23;20415;-78
2024/01/24 00:34:08;;;;;;;7.73;1.90;;;9.60;99.90;;;;;;6158773;23;20439;-76
2024/01/24 00:36:45;;;;;;;7.37;2.27;;;9.80;99.90;;;;;;6158081;23;20444;-78
2024/01/24 00:39:33;;;;;;;3.20;1.57;;;9.80;99.90;;;;;;6158010;23;20440;-77
2024/01/24 00:42:16;;;;;;;5.30;1.60;;;9.80;99.90;;;;;;6156155;23;20768;-77
2024/01/24 00:45:02;;;;;;;2.93;1.97;;;9.40;99.90;;;;;;6158119;23;20476;-79
2024/01/24 00:48:05;;;;;;;5.60;2.00;;;9.80;99.90;;;;;;6156814;23;20415;-77
2024/01/24 00:54:21;;;;;;;2.80;1.63;;;9.90;99.90;;;;;;6151872;23;20421;-79
2024/01/24 00:57:14;;;;;;;3.03;1.43;;;9.90;99.90;;;;;;6158141;23;20422;-76
2024/01/24 01:00:16;;;;;;;;;;;;;;;;;;;;;
2024/01/24 01:03:06;;;;;;;4.63;1.70;;;9.60;99.90;;;;;;6159659;23;20412;-78
2024/01/24 01:05:47;;;;;;;6.60;1.80;;;9.90;99.90;;;;;;6159292;23;20408;-77
2024/01/24 01:08:51;;;;;;;2.33;1.13;;;9.90;99.90;;;;;;6160210;23;20470;-77
2024/01/24 01:11:35;;;;;;;2.93;1.30;;;9.90;99.90;;;;;;6139773;23;20408;-78
2024/01/24 01:14:23;;;;;;;3.17;1.87;;;9.90;99.90;;;;;;6163378;23;20432;-77
2024/01/24 01:20:02;;;;;;;2.23;1.30;;;9.70;99.90;;;;;;6165034;23;20400;-78
2024/01/24 01:22:56;;;;;;;3.30;1.57;;;10.00;99.90;;;;;;6102737;23;21002;-77
2024/01/24 01:25:54;;;;;;;3.00;1.30;;;10.20;99.90;;;;;;6162476;23;20410;-76
2024/01/24 01:28:31;;;;;;;2.80;1.20;;;10.00;99.90;;;;;;6075887;23;20431;-78
2024/01/24 01:31:17;;;;;;;4.70;1.70;;;10.20;99.90;;;;;;6166896;23;20404;-79
2024/01/24 01:33:50;;;;;;;8.07;1.47;;;10.20;99.90;;;;;;6165826;23;20478;-76
2024/01/24 01:37:09;;;;;;;;;;;;;;;;;;;;;
2024/01/24 01:43:06;;;;;;;2.63;1.60;;;10.20;99.90;;;;;;6155139;23;20456;-77
2024/01/24 01:45:53;;;;;;;8.40;2.10;;;10.20;99.90;;;;;;6164285;23;20474;-76
2024/01/24 01:48:54;;;;;;;3.20;1.47;;;10.40;99.90;;;;;;6167611;23;20423;-78
2024/01/24 01:51:44;;;;;;;3.67;1.37;;;10.30;99.90;;;;;;6169028;23;20406;-78
2024/01/24 01:54:29;;;;;;;2.03;1.57;;;10.40;99.90;;;;;;6171743;23;20458;-79
2024/01/24 01:57:08;;;;;;;3.17;1.30;;;10.60;99.90;;;;;;6171633;23;20469;-79
2024/01/24 01:59:55;;;;;;;6.33;1.20;;;10.40;99.90;;;;;;6167511;23;20415;-79
2024/01/24 02:02:36;;;;;;;1.77;1.33;;;10.40;99.90;;;;;;6168591;23;20454;-78
2024/01/24 02:05:44;;;;;;;4.87;2.53;;;10.40;99.90;;;;;;6166700;23;20418;-78
2024/01/24 02:08:45;;;;;;;3.70;1.33;;;10.40;99.90;;;;;;6167077;23;20435;-78
2024/01/24 02:11:48;;;;;;;2.17;1.50;;;10.40;99.90;;;;;;6018148;23;20508;-78
2024/01/24 02:14:29;;;;;;;2.93;1.40;;;10.40;99.90;;;;;;6140411;23;20431;-77
2024/01/24 02:17:12;;;;;;;2.20;1.37;;;10.50;99.90;;;;;;6160877;23;20841;-77
2024/01/24 02:19:56;;;;;;;5.23;1.90;;;10.50;99.90;;;;;;6161039;23;20540;-77
2024/01/24 02:28:40;;;;;;;3.00;1.40;;;10.40;99.90;;;;;;6161700;23;20404;-77
2024/01/24 02:31:19;;;;;;;4.03;1.27;;;10.40;99.90;;;;;;6161628;23;20498;-78
2024/01/24 02:34:08;;;;;;;2.37;1.30;;;10.30;99.90;;;;;;6160395;23;20458;-78
2024/01/24 02:42:52;;;;;;;3.70;1.33;;;10.30;99.90;;;;;;6157532;23;20919;-78
2024/01/24 02:45:28;;;;;;;1.90;1.27;;;10.30;99.90;;;;;;6157735;23;20416;-77
2024/01/24 02:48:16;;;;;;;3.30;1.10;;;10.40;99.90;;;;;;6158958;23;20392;-78
2024/01/24 02:50:51;;;;;;;2.20;1.50;;;10.40;99.90;;;;;;6158932;23;20760;-77
2024/01/24 02:53:33;;;;;;;3.00;1.33;;;10.40;99.90;;;;;;6157901;23;20820;-77
2024/01/24 02:56:15;;;;;;;4.03;1.10;;;10.40;99.90;;;;;;6158396;23;20443;-79
2024/01/24 02:59:03;;;;;;;4.00;1.80;;;10.40;99.90;;;;;;6159689;23;20511;-78
2024/01/24 03:01:53;;;;;;;2.63;1.40;;;10.20;99.90;;;;;;6159866;23;20432;-77
2024/01/24 03:04:41;;;;;;;1.30;1.10;;;10.40;99.90;;;;;;6159136;23;20392;-78
2024/01/24 03:07:22;;;;;;;2.27;1.20;;;10.50;99.90;;;;;;6158088;23;20412;-77
2024/01/24 03:10:10;;;;;;;3.33;1.63;;;10.50;99.90;;;;;;6158712;23;20439;-77
2024/01/24 03:12:57;;;;;;;5.23;1.50;;;10.50;99.90;;;;;;6158493;23;20489;-77
2024/01/24 03:15:47;;;;;;;1.77;1.27;;;10.40;99.90;;;;;;6159124;23;20439;-78
2024/01/24 03:18:28;;;;;;;3.13;1.40;;;10.40;99.90;;;;;;6160473;23;20471;-78
2024/01/24 03:21:14;;;;;;;3.47;1.50;;;10.40;99.90;;;;;;6162535;23;20398;-78
2024/01/24 03:23:53;;;;;;;3.07;1.13;;;10.50;99.90;;;;;;6162820;23;20502;-77
2024/01/24 03:26:50;;;;;;;2.97;1.60;;;10.50;99.90;;;;;;6162548;23;20418;-78
2024/01/24 03:29:24;;;;;;;3.23;1.30;;;10.60;99.90;;;;;;6162303;23;20440;-79
2024/01/24 03:31:58;;;;;;;5.27;1.20;;;10.80;99.90;;;;;;6161840;23;20385;-77
2024/01/24 03:34:43;;;;;;;2.50;1.50;;;10.60;99.90;;;;;;6163829;23;20426;-79
2024/01/24 03:37:21;;;;;;;4.40;1.30;;;10.60;99.90;;;;;;6163933;23;20443;-79
2024/01/24 03:39:56;;;;;;;2.10;1.40;;;10.60;99.90;;;;;;6163148;23;20439;-78
2024/01/24 03:42:35;;;;;;;2.10;1.30;;;10.60;99.90;;;;;;6137570;23;20435;-77
2024/01/24 03:45:12;;;;;;;2.53;1.47;;;10.30;99.90;;;;;;6162592;23;20420;-79
2024/01/24 03:47:56;;;;;;;2.00;1.50;;;10.60;99.90;;;;;;6161339;23;20423;-78
2024/01/24 03:53:28;;;;;;;1.17;1.00;;;10.60;99.90;;;;;;6157320;23;20499;-77
2024/01/24 03:56:25;;;;;;;4.77;1.53;;;10.60;99.90;;;;;;6163407;23;20503;-77
2024/01/24 03:58:54;;;;;;;1.17;1.07;;;10.70;99.90;;;;;;6164805;23;20472;-77
2024/01/24 04:01:27;;;;;;;3.00;1.43;;;10.70;99.90;;;;;;6164159;23;20415;-78
2024/01/24 04:04:03;;;;;;;3.50;1.40;;;10.70;99.90;;;;;;6164696;23;20436;-79
2024/01/24 04:06:44;;;;;;;5.50;1.43;;;10.70;99.90;;;;;;6164119;23;20404;-78
2024/01/24 04:09:30;;;;;;;1.10;0.90;;;11.00;99.90;;;;;;6162045;23;20503;-78
2024/01/24 04:12:08;;;;;;;2.77;1.20;;;10.70;99.90;;;;;;6162312;23;20479;-78
2024/01/24 04:14:43;;;;;;;2.47;1.33;;;10.70;99.90;;;;;;6160901;23;20412;-78
2024/01/24 04:17:16;;;;;;;3.17;1.77;;;10.90;99.90;;;;;;6161339;23;20439;-78
2024/01/24 04:19:54;;;;;;;3.60;1.63;;;10.70;99.90;;;;;;6162163;23;20436;-77
2024/01/24 04:22:26;;;;;;;4.53;1.30;;;11.00;99.90;;;;;;6161541;23;20447;-78
2024/01/24 04:25:04;;;;;;;3.00;1.53;;;10.70;99.90;;;;;;6161013;23;20446;-78
2024/01/24 04:30:45;;;;;;;3.03;1.60;;;10.80;99.90;;;;;;6154281;23;20484;-78
2024/01/24 04:34:13;;;;;;;4.57;1.50;;;10.80;99.90;;;;;;6160029;23;20431;-78
2024/01/24 04:36:54;;;;;;;1.63;1.27;;;10.80;99.90;;;;;;6159314;23;20560;-78
2024/01/24 04:42:25;;;;;;;2.60;2.17;;;10.80;99.90;;;;;;6139650;23;20392;-77
2024/01/24 04:44:57;;;;;;;4.90;2.90;;;10.80;99.90;;;;;;6159921;23;20392;-78
2024/01/24 04:47:38;;;;;;;3.40;1.70;;;10.80;99.90;;;;;;6159072;23;20432;-78
2024/01/24 04:50:22;;;;;;;4.43;1.40;;;10.90;99.90;;;;;;6159889;23;20416;-77
2024/01/24 04:53:00;;;;;;;4.30;1.10;;;10.90;99.90;;;;;;6160678;23;20423;-78
2024/01/24 04:55:36;;;;;;;4.97;1.77;;;10.90;99.90;;;;;;6160105;23;20483;-77
2024/01/24 04:58:23;;;;;;;;;;;;;;;;;;;;;
2024/01/24 05:01:11;;;;;;;3.47;1.30;;;10.60;99.90;;;;;;6161230;23;20702;-77
2024/01/24 05:04:02;;;;;;;1.87;1.53;;;11.00;99.90;;;;;;6163239;23;20424;-77
2024/01/24 05:06:40;;;;;;;2.80;1.70;;;11.00;99.90;;;;;;6160862;23;20400;-77
2024/01/24 05:09:22;;;;;;;2.43;1.40;;;11.00;99.90;;;;;;6159680;23;20408;-77
2024/01/24 05:12:17;;;;;;;2.57;1.70;;;11.00;99.90;;;;;;6158588;23;20408;-78
2024/01/24 05:14:52;;;;;;;6.80;5.87;;;11.10;99.90;;;;;;6157612;23;20967;-78
2024/01/24 05:17:40;;;;;;;1.87;1.73;;;11.10;99.90;;;;;;6158159;23;20530;-78
2024/01/24 05:20:32;;;;;;;2.70;2.50;;;11.10;99.90;;;;;;6160004;23;20412;-78
2024/01/24 05:23:15;;;;;;;3.33;1.60;;;11.10;99.90;;;;;;6157817;23;20777;-78
2024/01/24 05:26:04;;;;;;;7.23;1.87;;;10.90;99.90;;;;;;6158517;23;20400;-79
2024/01/24 05:28:51;;;;;;;1.80;1.30;;;11.20;99.90;;;;;;6157154;23;20439;-78
2024/01/24 05:31:26;;;;;;;2.30;1.40;;;11.50;99.90;;;;;;6157352;23;20467;-77
2024/01/24 05:34:22;;;;;;;2.20;1.67;;;11.40;99.90;;;;;;6156218;23;20994;-77
2024/01/24 05:37:21;;;;;;;3.27;1.53;;;11.40;99.90;;;;;;6156579;23;20439;-79
2024/01/24 05:40:01;;;;;;;1.60;1.37;;;11.50;99.90;;;;;;6156017;23;20491;-80
2024/01/24 05:42:46;;;;;;;2.80;1.80;;;11.40;99.90;;;;;;6156327;23;20486;-79
2024/01/24 05:45:23;;;;;;;1.80;1.47;;;11.70;99.90;;;;;;6157034;23;20887;-77
2024/01/24 05:48:08;;;;;;;3.30;1.93;;;11.70;99.90;;;;;;6156708;23;20391;-80
2024/01/24 05:50:44;;;;;;;2.70;1.30;;;11.70;99.90;;;;;;6156245;23;20412;-78
2024/01/24 05:53:17;;;;;;;3.27;1.60;;;11.70;99.90;;;;;;6157750;23;20427;-78
2024/01/24 05:56:00;;;;;;;1.40;1.30;;;11.70;99.90;;;;;;6157158;23;20498;-80
2024/01/24 05:58:46;;;;;;;3.00;1.80;;;11.90;99.90;;;;;;6157586;23;20806;-78
2024/01/24 06:01:37;;;;;;;6.43;2.07;;;11.80;99.90;;;;;;6156827;23;20416;-78
2024/01/24 06:04:09;;;;;;;2.57;2.40;;;11.90;99.90;;;;;;6157482;23;20539;-79
2024/01/24 06:06:47;;;;;;;3.30;1.57;;;11.60;99.90;;;;;;6157253;23;20837;-78
2024/01/24 06:09:35;;;;;;;2.63;1.73;;;11.90;99.90;;;;;;6158314;23;20439;-78
2024/01/24 06:12:30;;;;;;;1.77;1.40;;;11.90;99.90;;;;;;6153761;23;20415;-77
2024/01/24 06:15:07;;;;;;;1.93;1.40;;;11.90;99.90;;;;;;6157714;23;20420;-79
2024/01/24 06:17:57;;;;;;;2.60;1.40;;;11.90;99.90;;;;;;6159136;23;20435;-79
2024/01/24 06:20:31;;;;;;;2.10;1.40;;;11.90;99.90;;;;;;6159563;23;20420;-80
2024/01/24 06:23:25;;;;;;;2.63;1.60;;;12.00;99.90;;;;;;6160377;23;20438;-79
2024/01/24 06:26:07;;;;;;;1.57;1.40;;;12.00;99.90;;;;;;6165400;23;20412;-78
2024/01/24 06:28:54;;;;;;;3.13;1.70;;;11.80;99.90;;;;;;6168555;23;20466;-78
2024/01/24 06:31:31;;;;;;;1.90;1.70;;;12.10;99.90;;;;;;6165855;23;20419;-80
2024/01/24 06:34:04;;;;;;;1.40;1.30;;;12.10;99.90;;;;;;6166929;23;20428;-78
2024/01/24 06:37:00;;;;;;;2.10;1.20;;;12.10;99.90;;;;;;6168179;23;20471;-79
2024/01/24 06:39:31;;;;;;;2.63;1.10;;;12.20;99.90;;;;;;6168032;23;20751;-78
2024/01/24 06:42:02;;;;;;;3.83;1.30;;;12.20;99.90;;;;;;6166896;23;20436;-78
2024/01/24 06:47:45;;;;;;;1.47;1.10;;;12.40;99.90;;;;;;6164536;23;20880;-79
2024/01/24 06:50:24;;;;;;;1.60;1.20;;;12.30;99.90;;;;;;6163138;23;20415;-77
2024/01/24 06:53:20;;;;;;;0.90;0.90;;;12.20;99.90;;;;;;6160741;23;20498;-78
2024/01/24 06:55:58;;;;;;;6.10;4.93;;;12.30;99.90;;;;;;6162177;23;20463;-79
2024/01/24 06:59:07;;;;;;;4.17;3.77;;;12.20;99.90;;;;;;6165176;23;20502;-79
2024/01/24 07:01:46;;;;;;;2.87;2.30;;;12.20;99.90;;;;;;6143168;23;20911;-79
2024/01/24 07:04:37;;;;;;;3.80;2.60;;;12.20;99.90;;;;;;6160369;23;20435;-79
2024/01/24 07:07:16;;;;;;;2.83;2.60;;;12.10;99.90;;;;;;6160019;23;20416;-80
2024/01/24 07:09:57;;;;;;;2.77;2.57;;;12.20;99.90;;;;;;6160281;23;20475;-78
2024/01/24 07:12:49;;;;;;;4.17;3.73;;;12.10;99.90;;;;;;6159000;23;20432;-80
2024/01/24 07:15:31;;;;;;;2.40;2.20;;;12.10;99.90;;;;;;6159010;23;20423;-79
2024/01/24 07:18:20;;;;;;;2.93;2.73;;;12.20;99.90;;;;;;6159552;23;20431;-78
2024/01/24 07:20:58;;;;;;;1.60;1.40;;;12.20;99.90;;;;;;6158862;23;20416;-79
2024/01/24 07:23:39;;;;;;;1.57;1.20;;;12.20;99.90;;;;;;6157866;23;20439;-78
2024/01/24 07:29:20;;;;;;;1.23;1.10;;;12.20;99.90;;;;;;6141074;23;20467;-78
2024/01/24 07:32:08;;;;;;;1.20;1.10;;;12.20;99.90;;;;;;6157459;23;20412;-79
2024/01/24 07:34:51;;;;;;;2.40;1.13;;;12.30;99.90;;;;;;6157913;23;20496;-79
2024/01/24 07:37:30;;;;;;;3.00;1.40;;;12.00;99.90;;;;;;6157822;23;20447;-81
2024/01/24 07:40:14;;;;;;;1.47;1.10;;;12.30;99.90;;;;;;6159071;23;20929;-78
2024/01/24 07:43:09;;;;;;;2.90;1.30;;;12.30;99.90;;;;;;6161648;23;20458;-78
2024/01/24 07:45:54;;;;;;;1.60;1.23;;;12.30;99.90;;;;;;6161351;23;20802;-79
2024/01/24 07:51:48;;;;;;;0.80;0.80;;;12.20;99.90;;;;;;6161689;23;20419;-79
2024/01/24 07:54:30;;;;;;;1.20;0.93;;;12.50;99.90;;;;;;6160427;23;20516;-79
2024/01/24 07:56:58;;;;;;;1.23;0.97;;;12.50;99.90;;;;;;6157693;23;20479;-79
2024/01/24 07:59:26;;;;;;;1.47;1.10;;;12.30;99.90;;;;;;6160553;23;20444;-79
2024/01/24 08:02:02;;;;;;;1.00;0.80;;;12.60;99.90;;;;;;6160234;23;20408;-78
2024/01/24 08:04:49;;;;;;;1.90;1.30;;;12.60;99.90;;;;;;6160555;23;20412;-78
2024/01/24 08:07:46;;;;;;;2.93;1.00;;;12.60;99.90;;;;;;6158603;23;20430;-78
2024/01/24 08:10:37;;;;;;;1.93;1.00;;;12.70;99.90;;;;;;6160057;23;20403;-77
2024/01/24 08:16:24;;;;;;;1.10;1.00;;;12.70;99.90;;;;;;6148446;23;20474;-77
2024/01/24 08:19:10;;;;;;;1.40;1.30;;;12.70;99.90;;;;;;6157328;23;21134;-78
2024/01/24 08:21:44;;;;;;;1.00;1.00;;;12.80;99.90;;;;;;6158218;23;20491;-78
2024/01/24 08:24:24;;;;;;;1.43;1.00;;;12.80;99.90;;;;;;6157365;23;20486;-79
2024/01/24 08:27:16;;;;;;;0.80;0.80;;;12.90;99.90;;;;;;6156285;23;20759;-78
2024/01/24 08:30:21;;;;;;;0.90;0.83;;;12.90;99.90;;;;;;6156721;23;20426;-78
2024/01/24 08:33:13;;;;;;;1.07;1.00;;;12.90;99.90;;;;;;6099955;23;20458;-79
2024/01/24 08:36:11;;;;;;;3.10;0.80;;;12.90;99.90;;;;;;6161683;23;20412;-78
2024/01/24 08:39:02;;;;;;;1.17;1.00;;;13.00;99.90;;;;;;6169329;23;20450;-78
2024/01/24 08:42:10;;;;;;;0.90;0.90;;;13.00;99.90;;;;;;6164118;23;20416;-78
2024/01/24 08:45:09;;;;;;;1.60;0.83;;;13.10;99.90;;;;;;6160158;23;20915;-79
2024/01/24 08:47:51;;;;;;;0.80;0.80;;;13.00;99.90;;;;;;6093397;23;20427;-78
2024/01/24 08:50:40;;;;;;;1.00;0.70;;;13.10;99.90;;;;;;6158221;23;20429;-78
2024/01/24 08:53:19;;;;;;;1.13;0.80;;;13.10;99.90;;;;;;6156850;23;20434;-77
2024/01/24 08:55:57;;;;;;;0.87;0.80;;;12.90;99.90;;;;;;6159248;23;20404;-78
2024/01/24 08:58:28;;;;;;;0.97;0.67;;;13.20;99.90;;;;;;6158209;23;20791;-78
2024/01/24 09:04:53;;;;;;;0.60;0.60;;;13.20;99.90;;;;;;6160835;23;20412;-79
2024/01/24 09:07:53;;;;;;;0.67;0.67;;;13.20;99.90;;;;;;6157203;23;20423;-78
2024/01/24 09:10:44;;;;;;;1.47;1.10;;;13.30;99.90;;;;;;6157767;23;20407;-79
2024/01/24 09:13:50;;;;;;;1.23;1.00;;;13.30;99.90;;;;;;6157339;23;20427;-78
2024/01/24 09:16:51;;;;;;;1.23;0.77;;;13.00;99.90;;;;;;6157931;23;20415;-78
2024/01/24 09:20:04;;;;;;;0.50;0.50;;;13.30;99.90;;;;;;6157583;23;20661;-79
2024/01/24 09:23:11;;;;;;;;;;;;;;;;;;;;;
2024/01/24 09:26:12;;;;;;;0.60;0.60;;;13.30;99.90;;;;;;6159375;23;20392;-78
2024/01/24 09:32:04;;;;;;;0.50;0.50;;;13.10;99.90;;;;;;6153653;23;20423;-78
2024/01/24 09:34:55;;;;;;;0.50;0.50;;;13.10;99.90;;;;;;6162758;23;20466;-80
2024/01/24 09:37:47;;;;;;;;;;;;;;;;;;;;;
2024/01/24 09:43:33;;;;;;;0.70;0.70;;;13.30;99.90;;;;;;6159957;23;20436;-79
2024/01/24 09:46:28;;;;;;;0.60;0.60;;;13.20;99.90;;;;;;6165612;23;20405;-79
2024/01/24 09:49:11;;;;;;;0.63;0.63;;;12.90;99.90;;;;;;6163137;23;20443;-79
2024/01/24 09:55:11;;;;;;;0.50;0.50;;;13.20;99.90;;;;;;6160552;23;20428;-79
2024/01/24 09:58:43;;;;;;;2.00;0.70;;;13.20;99.90;;;;;;6165645;23;20439;-77
2024/01/24 10:05:10;;;;;;;0.90;0.90;;;13.20;99.90;;;;;;6158695;23;20428;-77
2024/01/24 10:14:09;;;;;;;0.77;0.53;;;13.40;99.90;;;;;;6022192;23;20477;-80
2024/01/24 10:17:14;;;;;;;0.67;0.67;;;13.20;99.90;;;;;;6020176;23;20435;-79
2024/01/24 10:20:01;;;;;;;0.90;0.70;;;13.50;99.90;;;;;;6031287;23;20412;-78
2024/01/24 10:22:58;;;;;;;0.80;0.80;;;13.60;99.90;;;;;;6135203;23;20437;-77
2024/01/24 10:25:56;;;;;;;0.90;0.67;;;13.80;99.90;;;;;;6135944;23;20464;-80
2024/01/24 10:28:49;;;;;;;0.40;0.40;;;13.40;99.90;;;;;;6132842;23;20440;-80
2024/01/24 10:31:26;;;;;;;0.77;0.57;;;13.80;99.90;;;;;;6076234;23;20444;-80
2024/01/24 10:34:10;;;;;;;0.60;0.60;;;13.60;99.90;;;;;;6134316;23;20429;-80
2024/01/24 10:36:51;;;;;;;0.60;0.60;;;13.90;99.90;;;;;;6136207;23;20413;-79
2024/01/24 10:43:08;;;;;;;0.50;0.50;;;14.00;99.90;;;;;;6130276;23;20920;-79
2024/01/24 10:45:56;;;;;;;0.50;0.50;;;14.00;99.90;;;;;;6137710;23;20498;-79
2024/01/24 10:48:37;;;;;;;0.40;0.40;;;14.00;99.90;;;;;;6134740;23;20420;-80
2024/01/24 10:54:29;;;;;;;0.50;0.50;;;14.30;99.90;;;;;;6132678;23;20439;-78
2024/01/24 10:57:04;;;;;;;0.40;0.40;;;14.20;99.90;;;;;;6135394;23;20808;-80
2024/01/24 10:59:38;;;;;;;0.63;0.63;;;14.30;99.90;;;;;;6135464;23;20428;-80
2024/01/24 11:02:23;;;;;;;0.50;0.50;;;14.30;99.90;;;;;;6133713;23;20417;-79
2024/01/24 11:05:13;;;;;;;0.57;0.57;;;14.30;99.90;;;;;;6135148;23;20436;-79
2024/01/24 11:08:24;;;;;;;0.50;0.50;;;14.10;99.90;;;;;;6137272;23;20419;-80
2024/01/24 11:11:21;;;;;;;0.43;0.43;;;13.90;99.90;;;;;;6134333;23;20413;-78
2024/01/24 11:17:17;;;;;;;;;;;;;;;;;;;;;
2024/01/24 11:19:54;;;;;;;0.40;0.40;;;13.60;99.90;;;;;;6161722;23;20455;-80
2024/01/24 11:22:25;;;;;;;0.60;0.60;;;13.80;99.90;;;;;;6158497;23;20455;-78
2024/01/24 11:24:54;;;;;;;0.80;0.80;;;13.70;99.90;;;;;;6161369;23;20408;-78
2024/01/24 11:27:32;;;;;;;1.20;1.10;;;13.30;99.90;;;;;;6165868;23;20395;-77
2024/01/24 11:30:05;;;;;;;1.03;0.50;;;13.50;99.90;;;;;;6161766;23;20412;-80
2024/01/24 11:33:04;;;;;;;0.60;0.60;;;13.40;99.90;;;;;;6162431;23;20440;-78
2024/01/24 11:35:40;;;;;;;0.80;0.80;;;13.40;99.90;;;;;;6042661;23;20388;-78
2024/01/24 11:38:29;;;;;;;0.90;0.60;;;13.50;99.90;;;;;;6142622;23;20439;-77
2024/01/24 11:41:02;;;;;;;1.07;1.07;;;13.40;99.90;;;;;;6164725;23;20427;-79
2024/01/24 11:43:35;;;;;;;0.50;0.50;;;13.40;99.90;;;;;;6164372;23;20416;-78
2024/01/24 11:46:10;;;;;;;0.90;0.90;;;13.50;99.90;;;;;;6166403;23;20431;-78
2024/01/24 11:48:38;;;;;;;0.80;0.70;;;13.50;99.90;;;;;;6164361;23;20443;-79
2024/01/24 11:51:12;;;;;;;2.20;0.90;;;13.50;99.90;;;;;;6168356;23;20416;-79
2024/01/24 11:53:40;;;;;;;0.80;0.80;;;13.60;99.90;;;;;;6168861;23;20413;-76
2024/01/24 11:56:08;;;;;;;0.83;0.83;;;13.50;99.90;;;;;;6166582;23;20435;-79
2024/01/24 11:58:37;;;;;;;1.23;1.13;;;13.50;99.90;;;;;;6166594;23;20424;-79
2024/01/24 12:01:05;;;;;;;0.93;0.90;;;13.70;99.90;;;;;;6167666;23;20396;-77
2024/01/24 12:03:33;;;;;;;0.73;0.60;;;13.30;99.90;;;;;;6166912;23;20428;-77
2024/01/24 12:06:01;;;;;;;0.73;0.53;;;13.50;99.90;;;;;;6170516;23;20393;-78
2024/01/24 12:08:30;;;;;;;0.73;0.73;;;13.60;99.90;;;;;;6168416;23;20419;-78
2024/01/24 12:10:58;;;;;;;0.80;0.70;;;13.70;99.90;;;;;;6164493;23;20494;-78
2024/01/24 12:13:40;;;;;;;1.07;0.80;;;13.70;99.90;;;;;;6165910;23;20439;-78
2024/01/24 12:16:15;;;;;;;2.53;0.90;;;13.60;99.90;;;;;;6164913;23;20416;-79
2024/01/24 12:18:43;;;;;;;3.40;0.70;;;13.60;99.90;;;;;;6134375;23;20435;-78
2024/01/24 12:21:12;;;;;;;2.00;0.93;;;13.60;99.90;;;;;;6158478;23;20435;-77
2024/01/24 12:23:40;;;;;;;1.23;0.90;;;13.60;99.90;;;;;;6160002;23;20436;-78
2024/01/24 12:26:13;;;;;;;3.70;0.93;;;13.50;99.90;;;;;;6160986;23;20455;-77
2024/01/24 12:28:47;;;;;;;4.17;1.07;;;13.60;99.90;;;;;;6161114;23;20801;-79
2024/01/24 12:32:00;;;;;;;1.47;0.90;;;13.50;99.90;;;;;;6161723;23;21018;-79
2024/01/24 12:35:01;;;;;;;2.20;1.07;;;13.40;99.90;;;;;;6159664;23;20415;-79
2024/01/24 12:37:43;;;;;;;2.10;0.80;;;13.40;99.90;;;;;;6160824;23;20983;-79
2024/01/24 12:40:36;;;;;;;2.63;0.80;;;13.00;99.90;;;;;;6142095;23;20432;-77
2024/01/24 12:43:14;;;;;;;1.67;1.00;;;13.40;99.90;;;;;;6165192;23;20436;-77
2024/01/24 12:46:04;;;;;;;1.13;0.60;;;13.70;99.90;;;;;;6165493;23;20384;-77
2024/01/24 12:48:38;;;;;;;3.20;0.90;;;13.40;99.90;;;;;;6163956;23;20420;-78
2024/01/24 12:51:09;;;;;;;1.20;1.10;;;13.50;99.90;;;;;;6166272;23;20411;-77
2024/01/24 12:53:46;;;;;;;2.57;1.33;;;13.30;99.90;;;;;;6167554;23;20412;-81
2024/01/24 12:56:18;;;;;;;1.83;0.70;;;13.70;99.90;;;;;;6165718;23;20419;-80
2024/01/24 12:58:55;;;;;;;2.73;1.00;;;13.80;99.90;;;;;;6167126;23;20466;-77
2024/01/24 13:01:26;;;;;;;1.80;0.70;;;13.80;99.90;;;;;;6166933;23;20439;-80
2024/01/24 13:03:54;;;;;;;3.57;1.07;;;13.80;99.90;;;;;;6165819;23;20515;-77
2024/01/24 13:06:24;;;;;;;2.27;0.80;;;13.80;99.90;;;;;;6167948;23;20401;-81
2024/01/24 13:08:58;;;;;;;1.10;1.00;;;13.80;99.90;;;;;;6168741;23;21011;-79
2024/01/24 13:11:26;;;;;;;1.30;0.90;;;14.10;99.90;;;;;;6172221;23;20404;-79
2024/01/24 13:14:05;;;;;;;3.67;1.20;;;13.90;99.90;;;;;;6170023;23;20463;-77
2024/01/24 13:16:36;;;;;;;1.87;0.70;;;13.90;99.90;;;;;;6170405;23;20958;-78
2024/01/24 13:19:13;;;;;;;1.60;1.00;;;13.60;99.90;;;;;;6164896;23;20438;-78
2024/01/24 13:25:25;;;;;;;0.80;0.80;;;13.80;99.90;;;;;;6161009;23;20407;-81
2024/01/24 13:31:12;;;;;;;1.50;0.97;;;13.60;99.90;;;;;;6163925;23;20415;-81
2024/01/24 13:33:59;;;;;;;1.63;0.90;;;13.60;99.90;;;;;;6166512;23;20934;-80
2024/01/24 13:36:39;;;;;;;1.77;0.90;;;13.50;99.90;;;;;;6166232;23;20856;-78
2024/01/24 13:39:14;;;;;;;2.70;0.90;;;13.40;99.90;;;;;;6163781;23;20966;-78
2024/01/24 13:41:47;;;;;;;1.80;1.10;;;13.30;99.90;;;;;;6163571;23;20399;-80
2024/01/24 13:44:15;;;;;;;1.80;1.10;;;13.10;99.90;;;;;;6163928;23;20420;-80
2024/01/24 13:46:43;;;;;;;2.03;1.10;;;13.40;99.90;;;;;;6163465;23;20412;-79
2024/01/24 13:49:14;;;;;;;2.10;0.80;;;13.40;99.90;;;;;;6164144;23;20408;-78
2024/01/24 13:51:43;;;;;;;4.17;1.10;;;13.50;99.90;;;;;;6163897;23;20395;-79
2024/01/24 13:54:14;;;;;;;1.83;1.00;;;13.50;99.90;;;;;;6165756;23;20920;-80
2024/01/24 13:56:43;;;;;;;4.13;1.13;;;13.50;99.90;;;;;;6164614;23;21373;-80
2024/01/24 13:59:11;;;;;;;2.53;0.80;;;13.50;99.90;;;;;;6165306;23;20448;-79
2024/01/24 14:01:38;;;;;;;4.93;1.37;;;13.50;99.90;;;;;;6168858;23;20416;-80
2024/01/24 14:04:05;;;;;;;3.97;1.30;;;13.60;99.90;;;;;;6173789;23;20490;-81
2024/01/24 14:06:32;;;;;;;2.57;0.90;;;13.60;99.90;;;;;;6172966;23;20742;-80
2024/01/24 14:09:00;;;;;;;2.87;1.07;;;13.60;99.90;;;;;;6169298;23;20899;-81
2024/01/24 14:11:28;;;;;;;2.20;1.10;;;13.90;99.90;;;;;;6163821;23;20408;-79
2024/01/24 14:13:54;;;;;;;3.20;1.33;;;13.60;99.90;;;;;;6165277;23;20428;-79
2024/01/24 14:16:21;;;;;;;5.87;1.10;;;13.70;99.90;;;;;;6170801;23;20472;-78
2024/01/24 14:18:48;;;;;;;5.90;1.50;;;13.70;99.90;;;;;;6169143;23;20423;-79
2024/01/24 14:21:15;;;;;;;3.57;1.30;;;13.70;99.90;;;;;;6169195;23;20439;-80
2024/01/24 14:23:43;;;;;;;3.20;1.40;;;13.90;99.90;;;;;;6170990;23;20528;-80
2024/01/24 14:26:14;;;;;;;3.10;1.23;;;13.70;99.90;;;;;;6170313;23;20428;-80
2024/01/24 14:28:41;;;;;;;1.87;1.30;;;13.70;99.90;;;;;;6165138;23;20408;-81
2024/01/24 14:31:17;;;;;;;6.07;1.20;;;13.60;99.90;;;;;;6163774;23;20408;-82
2024/01/24 14:33:44;;;;;;;1.30;1.10;;;13.60;99.90;;;;;;6164014;23;20431;-81
2024/01/24 14:36:38;;;;;;;2.73;1.13;;;13.80;99.90;;;;;;6165599;23;20443;-82
2024/01/24 14:39:27;;;;;;;4.50;1.43;;;13.50;99.90;;;;;;6163999;23;20480;-82
2024/01/24 14:42:23;;;;;;;1.50;1.03;;;13.50;99.90;;;;;;6104319;23;20423;-79
2024/01/24 14:45:16;;;;;;;3.60;1.40;;;13.40;99.90;;;;;;6159111;23;20416;-84
2024/01/24 14:47:52;;;;;;;5.03;1.70;;;13.40;99.90;;;;;;6162441;23;20475;-81
2024/01/24 14:50:25;;;;;;;3.10;1.27;;;13.30;99.90;;;;;;6163375;23;20408;-80
2024/01/24 14:53:02;;;;;;;4.77;1.43;;;13.00;99.90;;;;;;6162694;23;20432;-82
2024/01/24 14:55:33;;;;;;;2.83;1.50;;;13.50;99.90;;;;;;6163120;23;20408;-79
2024/01/24 14:58:23;;;;;;;4.33;1.07;;;13.40;99.90;;;;;;6166037;23;20380;-77
2024/01/24 15:01:13;;;;;;;3.20;1.13;;;13.10;99.90;;;;;;6170625;23;20466;-79
2024/01/24 15:03:52;;;;;;;3.73;1.50;;;13.10;99.90;;;;;;6169710;23;20475;-77
2024/01/24 15:06:25;;;;;;;3.27;1.60;;;12.70;99.90;;;;;;6170304;23;20451;-80
2024/01/24 15:09:18;;;;;;;6.30;1.70;;;13.00;99.90;;;;;;6171997;23;20440;-80
2024/01/24 15:19:40;;;;;;;;;;;;;;;;;;;;;
2024/01/24 15:25:37;;;;;;;5.20;1.83;;;12.50;99.90;;;;;;5935527;24;20406;-79
2024/01/24 15:28:05;;;;;;;3.20;1.70;;;12.80;99.90;;;;;;6053334;23;20427;-79
2024/01/24 15:30:40;;;;;;;5.10;1.70;;;12.80;99.90;;;;;;6164193;23;20412;-79
2024/01/24 15:33:08;;;;;;;4.87;1.37;;;12.70;99.90;;;;;;6167098;23;20459;-78
2024/01/24 15:35:40;;;;;;;5.60;1.70;;;12.70;99.90;;;;;;6166170;23;20400;-78
2024/01/24 15:38:18;;;;;;;3.70;1.50;;;12.70;99.90;;;;;;6165421;23;20412;-79
2024/01/24 15:41:01;;;;;;;4.20;1.67;;;12.60;99.90;;;;;;6166242;23;20451;-79
2024/01/24 15:43:37;;;;;;;4.83;1.53;;;12.60;99.90;;;;;;6164146;23;20423;-79
2024/01/24 15:46:32;;;;;;;2.60;1.67;;;12.60;99.90;;;;;;6166759;23;20400;-79
2024/01/24 15:49:04;;;;;;;3.63;1.90;;;12.60;99.90;;;;;;6167478;23;20407;-77
2024/01/24 15:52:09;;;;;;;4.10;2.20;;;12.50;99.90;;;;;;6171888;23;20424;-77
2024/01/24 15:55:08;;;;;;;;;;;;;;;;;;;;;
2024/01/24 16:00:45;;;;;;;;;;;;;;;;;;;;;
2024/01/24 16:03:25;;;;;;;5.30;1.70;;;12.40;99.90;;;;;;6165306;23;20694;-78